sensor_id;sensor_type;location;lat;lon;timestamp;P1;durP1;ratioP1;P2;durP2;ratioP2
3066;SDS011;1544;48.834;9.194;2022-07-23T00:00:33;4.50;;;4.20;;
3066;SDS011;1544;48.834;9.194;2022-07-23T00:03:08;4.33;;;4.13;;
3066;SDS011;1544;48.834;9.194;2022-07-23T00:05:39;4.43;;;4.23;;
3066;SDS011;1544;48.834;9.194;2022-07-23T00:08:11;4.80;;;4.53;;
3066;SDS011;1544;48.834;9.194;2022-07-23T00:10:43;4.20;;;4.00;;
3066;SDS011;1544;48.834;9.194;2022-07-23T00:13:14;3.90;;;3.80;;
3066;SDS011;1544;48.834;9.194;2022-07-23T00:15:45;4.73;;;4.50;;
3066;SDS011;1544;48.834;9.194;2022-07-23T00:18:16;4.80;;;4.50;;
3066;SDS011;1544;48.834;9.194;2022-07-23T00:20:47;4.90;;;4.60;;
3066;SDS011;1544;48.834;9.194;2022-07-23T00:23:19;4.10;;;3.90;;
3066;SDS011;1544;48.834;9.194;2022-07-23T00:25:51;4.47;;;4.17;;
3066;SDS011;1544;48.834;9.194;2022-07-23T00:28:22;4.80;;;4.60;;
3066;SDS011;1544;48.834;9.194;2022-07-23T00:30:53;4.40;;;4.20;;
3066;SDS011;1544;48.834;9.194;2022-07-23T00:33:24;3.80;;;3.70;;
3066;SDS011;1544;48.834;9.194;2022-07-23T00:35:55;4.27;;;4.07;;
3066;SDS011;1544;48.834;9.194;2022-07-23T00:38:26;4.20;;;3.90;;
3066;SDS011;1544;48.834;9.194;2022-07-23T00:40:57;4.60;;;4.40;;
3066;SDS011;1544;48.834;9.194;2022-07-23T00:43:28;5.00;;;4.63;;
3066;SDS011;1544;48.834;9.194;2022-07-23T00:45:59;4.60;;;4.30;;
3066;SDS011;1544;48.834;9.194;2022-07-23T00:48:32;4.40;;;4.10;;
3066;SDS011;1544;48.834;9.194;2022-07-23T00:51:03;4.73;;;4.50;;
3066;SDS011;1544;48.834;9.194;2022-07-23T00:53:34;4.80;;;4.60;;
3066;SDS011;1544;48.834;9.194;2022-07-23T00:56:05;4.20;;;4.00;;
3066;SDS011;1544;48.834;9.194;2022-07-23T00:58:37;4.37;;;4.07;;
3066;SDS011;1544;48.834;9.194;2022-07-23T01:01:09;4.40;;;4.20;;
3066;SDS011;1544;48.834;9.194;2022-07-23T01:03:42;4.23;;;4.03;;
3066;SDS011;1544;48.834;9.194;2022-07-23T01:06:13;4.33;;;4.13;;
3066;SDS011;1544;48.834;9.194;2022-07-23T01:08:45;5.03;;;4.77;;
3066;SDS011;1544;48.834;9.194;2022-07-23T01:11:17;4.20;;;4.00;;
3066;SDS011;1544;48.834;9.194;2022-07-23T01:13:49;4.60;;;4.30;;
3066;SDS011;1544;48.834;9.194;2022-07-23T01:16:21;4.40;;;4.20;;
3066;SDS011;1544;48.834;9.194;2022-07-23T01:18:52;4.73;;;4.33;;
3066;SDS011;1544;48.834;9.194;2022-07-23T01:21:23;4.57;;;4.17;;
3066;SDS011;1544;48.834;9.194;2022-07-23T01:23:55;4.13;;;3.83;;
3066;SDS011;1544;48.834;9.194;2022-07-23T01:26:26;4.37;;;4.07;;
3066;SDS011;1544;48.834;9.194;2022-07-23T01:28:57;4.70;;;4.20;;
3066;SDS011;1544;48.834;9.194;2022-07-23T01:31:29;4.77;;;4.47;;
3066;SDS011;1544;48.834;9.194;2022-07-23T01:34:01;4.33;;;4.13;;
3066;SDS011;1544;48.834;9.194;2022-07-23T01:36:33;4.50;;;4.20;;
3066;SDS011;1544;48.834;9.194;2022-07-23T01:39:06;4.37;;;4.17;;
3066;SDS011;1544;48.834;9.194;2022-07-23T01:41:38;4.77;;;4.50;;
3066;SDS011;1544;48.834;9.194;2022-07-23T01:44:09;3.80;;;3.60;;
3066;SDS011;1544;48.834;9.194;2022-07-23T01:46:42;4.70;;;4.40;;
3066;SDS011;1544;48.834;9.194;2022-07-23T01:49:14;4.97;;;4.77;;
3066;SDS011;1544;48.834;9.194;2022-07-23T01:51:57;4.70;;;4.40;;
3066;SDS011;1544;48.834;9.194;2022-07-23T01:54:36;4.23;;;4.03;;
3066;SDS011;1544;48.834;9.194;2022-07-23T01:57:10;4.60;;;4.37;;
3066;SDS011;1544;48.834;9.194;2022-07-23T01:59:41;5.00;;;4.70;;
3066;SDS011;1544;48.834;9.194;2022-07-23T02:02:13;5.03;;;4.77;;
3066;SDS011;1544;48.834;9.194;2022-07-23T02:04:44;4.57;;;4.23;;
3066;SDS011;1544;48.834;9.194;2022-07-23T02:07:15;4.03;;;3.83;;
3066;SDS011;1544;48.834;9.194;2022-07-23T02:09:46;4.83;;;4.53;;
3066;SDS011;1544;48.834;9.194;2022-07-23T02:12:18;4.93;;;4.70;;
3066;SDS011;1544;48.834;9.194;2022-07-23T02:14:48;4.70;;;4.40;;
3066;SDS011;1544;48.834;9.194;2022-07-23T02:17:20;4.47;;;4.23;;
3066;SDS011;1544;48.834;9.194;2022-07-23T02:19:51;4.27;;;4.07;;
3066;SDS011;1544;48.834;9.194;2022-07-23T02:22:22;4.00;;;3.80;;
3066;SDS011;1544;48.834;9.194;2022-07-23T02:24:53;4.20;;;3.90;;
3066;SDS011;1544;48.834;9.194;2022-07-23T02:27:23;4.57;;;4.37;;
3066;SDS011;1544;48.834;9.194;2022-07-23T02:29:56;4.83;;;4.63;;
3066;SDS011;1544;48.834;9.194;2022-07-23T02:32:28;5.30;;;5.00;;
3066;SDS011;1544;48.834;9.194;2022-07-23T02:34:59;3.93;;;3.83;;
3066;SDS011;1544;48.834;9.194;2022-07-23T02:37:30;4.50;;;4.30;;
3066;SDS011;1544;48.834;9.194;2022-07-23T02:40:01;4.97;;;4.67;;
3066;SDS011;1544;48.834;9.194;2022-07-23T02:42:34;4.00;;;3.80;;
3066;SDS011;1544;48.834;9.194;2022-07-23T02:45:07;4.53;;;4.33;;
3066;SDS011;1544;48.834;9.194;2022-07-23T02:47:39;5.10;;;4.80;;
3066;SDS011;1544;48.834;9.194;2022-07-23T02:50:12;4.87;;;4.47;;
3066;SDS011;1544;48.834;9.194;2022-07-23T02:52:43;4.97;;;4.77;;
3066;SDS011;1544;48.834;9.194;2022-07-23T02:55:14;4.80;;;4.60;;
3066;SDS011;1544;48.834;9.194;2022-07-23T02:57:45;5.23;;;4.93;;
3066;SDS011;1544;48.834;9.194;2022-07-23T03:00:16;5.10;;;4.80;;
3066;SDS011;1544;48.834;9.194;2022-07-23T03:02:47;5.07;;;4.77;;
3066;SDS011;1544;48.834;9.194;2022-07-23T03:05:18;4.77;;;4.47;;
3066;SDS011;1544;48.834;9.194;2022-07-23T03:07:49;5.17;;;4.87;;
3066;SDS011;1544;48.834;9.194;2022-07-23T03:10:20;5.20;;;4.90;;
3066;SDS011;1544;48.834;9.194;2022-07-23T03:12:51;4.53;;;4.30;;
3066;SDS011;1544;48.834;9.194;2022-07-23T03:15:22;4.50;;;4.30;;
3066;SDS011;1544;48.834;9.194;2022-07-23T03:17:53;4.73;;;4.50;;
3066;SDS011;1544;48.834;9.194;2022-07-23T03:20:24;4.20;;;4.00;;
3066;SDS011;1544;48.834;9.194;2022-07-23T03:22:56;4.97;;;4.67;;
3066;SDS011;1544;48.834;9.194;2022-07-23T03:25:27;5.10;;;4.80;;
3066;SDS011;1544;48.834;9.194;2022-07-23T03:27:58;4.13;;;3.93;;
3066;SDS011;1544;48.834;9.194;2022-07-23T03:30:31;4.83;;;4.63;;
3066;SDS011;1544;48.834;9.194;2022-07-23T03:33:02;4.40;;;4.10;;
3066;SDS011;1544;48.834;9.194;2022-07-23T03:35:33;5.20;;;4.90;;
3066;SDS011;1544;48.834;9.194;2022-07-23T03:38:19;4.47;;;4.17;;
3066;SDS011;1544;48.834;9.194;2022-07-23T03:40:50;4.80;;;4.50;;
3066;SDS011;1544;48.834;9.194;2022-07-23T03:43:21;5.50;;;5.20;;
3066;SDS011;1544;48.834;9.194;2022-07-23T03:45:54;4.67;;;4.47;;
3066;SDS011;1544;48.834;9.194;2022-07-23T03:48:25;4.50;;;4.30;;
3066;SDS011;1544;48.834;9.194;2022-07-23T03:50:56;5.23;;;4.87;;
3066;SDS011;1544;48.834;9.194;2022-07-23T03:53:28;4.53;;;4.30;;
3066;SDS011;1544;48.834;9.194;2022-07-23T03:55:59;4.37;;;4.13;;
3066;SDS011;1544;48.834;9.194;2022-07-23T03:58:30;5.13;;;4.73;;
3066;SDS011;1544;48.834;9.194;2022-07-23T04:01:01;4.67;;;4.47;;
3066;SDS011;1544;48.834;9.194;2022-07-23T04:03:33;4.80;;;4.60;;
3066;SDS011;1544;48.834;9.194;2022-07-23T04:06:04;5.40;;;5.10;;
3066;SDS011;1544;48.834;9.194;2022-07-23T04:08:37;5.17;;;4.87;;
3066;SDS011;1544;48.834;9.194;2022-07-23T04:11:08;5.40;;;5.10;;
3066;SDS011;1544;48.834;9.194;2022-07-23T04:13:39;5.40;;;5.10;;
3066;SDS011;1544;48.834;9.194;2022-07-23T04:16:10;5.43;;;5.13;;
3066;SDS011;1544;48.834;9.194;2022-07-23T04:18:42;5.17;;;4.87;;
3066;SDS011;1544;48.834;9.194;2022-07-23T04:21:18;5.70;;;5.30;;
3066;SDS011;1544;48.834;9.194;2022-07-23T04:23:50;5.43;;;5.10;;
3066;SDS011;1544;48.834;9.194;2022-07-23T04:26:21;5.60;;;5.20;;
3066;SDS011;1544;48.834;9.194;2022-07-23T04:28:52;5.50;;;5.10;;
3066;SDS011;1544;48.834;9.194;2022-07-23T04:31:23;5.37;;;5.17;;
3066;SDS011;1544;48.834;9.194;2022-07-23T04:33:54;5.23;;;4.93;;
3066;SDS011;1544;48.834;9.194;2022-07-23T04:36:25;5.00;;;4.80;;
3066;SDS011;1544;48.834;9.194;2022-07-23T04:38:56;5.23;;;5.03;;
3066;SDS011;1544;48.834;9.194;2022-07-23T04:41:29;5.70;;;5.20;;
3066;SDS011;1544;48.834;9.194;2022-07-23T04:44:00;5.43;;;5.03;;
3066;SDS011;1544;48.834;9.194;2022-07-23T04:46:32;5.20;;;4.90;;
3066;SDS011;1544;48.834;9.194;2022-07-23T04:49:04;5.20;;;4.90;;
3066;SDS011;1544;48.834;9.194;2022-07-23T04:51:36;5.00;;;4.70;;
3066;SDS011;1544;48.834;9.194;2022-07-23T04:54:07;5.33;;;4.97;;
3066;SDS011;1544;48.834;9.194;2022-07-23T04:56:39;5.40;;;5.10;;
3066;SDS011;1544;48.834;9.194;2022-07-23T04:59:10;5.50;;;5.20;;
3066;SDS011;1544;48.834;9.194;2022-07-23T05:01:42;5.30;;;5.00;;
3066;SDS011;1544;48.834;9.194;2022-07-23T05:04:15;4.53;;;4.33;;
3066;SDS011;1544;48.834;9.194;2022-07-23T05:06:48;5.00;;;4.60;;
3066;SDS011;1544;48.834;9.194;2022-07-23T05:09:19;4.73;;;4.43;;
3066;SDS011;1544;48.834;9.194;2022-07-23T05:11:50;5.30;;;4.90;;
3066;SDS011;1544;48.834;9.194;2022-07-23T05:14:24;4.67;;;4.47;;
3066;SDS011;1544;48.834;9.194;2022-07-23T05:16:56;5.03;;;4.73;;
3066;SDS011;1544;48.834;9.194;2022-07-23T05:19:28;4.80;;;4.60;;
3066;SDS011;1544;48.834;9.194;2022-07-23T05:21:59;4.77;;;4.57;;
3066;SDS011;1544;48.834;9.194;2022-07-23T05:24:31;5.63;;;5.17;;
3066;SDS011;1544;48.834;9.194;2022-07-23T05:27:02;5.37;;;4.97;;
3066;SDS011;1544;48.834;9.194;2022-07-23T05:29:33;5.60;;;5.30;;
3066;SDS011;1544;48.834;9.194;2022-07-23T05:32:04;5.67;;;5.23;;
3066;SDS011;1544;48.834;9.194;2022-07-23T05:34:38;5.33;;;5.00;;
3066;SDS011;1544;48.834;9.194;2022-07-23T05:37:09;5.20;;;4.80;;
3066;SDS011;1544;48.834;9.194;2022-07-23T05:39:40;6.57;;;6.07;;
3066;SDS011;1544;48.834;9.194;2022-07-23T05:42:12;4.87;;;4.57;;
3066;SDS011;1544;48.834;9.194;2022-07-23T05:44:43;5.17;;;4.87;;
3066;SDS011;1544;48.834;9.194;2022-07-23T05:47:15;4.93;;;4.73;;
3066;SDS011;1544;48.834;9.194;2022-07-23T05:49:46;5.50;;;5.10;;
3066;SDS011;1544;48.834;9.194;2022-07-23T05:52:32;5.37;;;5.07;;
3066;SDS011;1544;48.834;9.194;2022-07-23T05:55:22;4.97;;;4.77;;
3066;SDS011;1544;48.834;9.194;2022-07-23T05:57:53;5.20;;;4.90;;
3066;SDS011;1544;48.834;9.194;2022-07-23T06:00:24;5.47;;;5.10;;
3066;SDS011;1544;48.834;9.194;2022-07-23T06:02:57;5.27;;;4.87;;
3066;SDS011;1544;48.834;9.194;2022-07-23T06:05:31;4.73;;;4.53;;
3066;SDS011;1544;48.834;9.194;2022-07-23T06:08:02;5.70;;;5.20;;
3066;SDS011;1544;48.834;9.194;2022-07-23T06:10:34;6.23;;;5.93;;
3066;SDS011;1544;48.834;9.194;2022-07-23T06:13:06;5.67;;;5.27;;
3066;SDS011;1544;48.834;9.194;2022-07-23T06:15:37;6.40;;;6.00;;
3066;SDS011;1544;48.834;9.194;2022-07-23T06:18:09;6.50;;;6.10;;
3066;SDS011;1544;48.834;9.194;2022-07-23T06:20:42;6.47;;;5.97;;
3066;SDS011;1544;48.834;9.194;2022-07-23T06:23:15;6.03;;;5.67;;
3066;SDS011;1544;48.834;9.194;2022-07-23T06:25:46;6.30;;;5.90;;
3066;SDS011;1544;48.834;9.194;2022-07-23T06:28:18;6.30;;;5.80;;
3066;SDS011;1544;48.834;9.194;2022-07-23T06:30:49;6.00;;;5.60;;
3066;SDS011;1544;48.834;9.194;2022-07-23T06:33:21;5.70;;;5.40;;
3066;SDS011;1544;48.834;9.194;2022-07-23T06:35:52;5.43;;;5.17;;
3066;SDS011;1544;48.834;9.194;2022-07-23T06:38:24;5.67;;;5.37;;
3066;SDS011;1544;48.834;9.194;2022-07-23T06:40:55;5.67;;;5.37;;
3066;SDS011;1544;48.834;9.194;2022-07-23T06:43:26;5.33;;;4.93;;
3066;SDS011;1544;48.834;9.194;2022-07-23T06:45:58;6.50;;;5.97;;
3066;SDS011;1544;48.834;9.194;2022-07-23T06:48:30;5.87;;;5.57;;
3066;SDS011;1544;48.834;9.194;2022-07-23T06:51:01;6.67;;;6.20;;
3066;SDS011;1544;48.834;9.194;2022-07-23T06:53:33;6.27;;;5.77;;
3066;SDS011;1544;48.834;9.194;2022-07-23T06:56:04;6.20;;;5.90;;
3066;SDS011;1544;48.834;9.194;2022-07-23T06:58:36;6.10;;;5.70;;
3066;SDS011;1544;48.834;9.194;2022-07-23T07:01:09;5.90;;;5.50;;
3066;SDS011;1544;48.834;9.194;2022-07-23T07:03:40;5.50;;;5.20;;
3066;SDS011;1544;48.834;9.194;2022-07-23T07:06:12;6.60;;;6.20;;
3066;SDS011;1544;48.834;9.194;2022-07-23T07:08:46;6.30;;;5.90;;
3066;SDS011;1544;48.834;9.194;2022-07-23T07:11:17;7.27;;;6.77;;
3066;SDS011;1544;48.834;9.194;2022-07-23T07:13:48;6.17;;;5.87;;
3066;SDS011;1544;48.834;9.194;2022-07-23T07:16:20;7.13;;;6.60;;
3066;SDS011;1544;48.834;9.194;2022-07-23T07:18:51;6.33;;;5.93;;
3066;SDS011;1544;48.834;9.194;2022-07-23T07:21:23;6.83;;;6.43;;
3066;SDS011;1544;48.834;9.194;2022-07-23T07:23:54;6.57;;;6.27;;
3066;SDS011;1544;48.834;9.194;2022-07-23T07:26:25;5.80;;;5.40;;
3066;SDS011;1544;48.834;9.194;2022-07-23T07:28:56;7.27;;;6.80;;
3066;SDS011;1544;48.834;9.194;2022-07-23T07:31:28;6.83;;;6.43;;
3066;SDS011;1544;48.834;9.194;2022-07-23T07:33:59;6.53;;;6.13;;
3066;SDS011;1544;48.834;9.194;2022-07-23T07:36:30;6.87;;;6.47;;
3066;SDS011;1544;48.834;9.194;2022-07-23T07:39:01;7.33;;;6.70;;
3066;SDS011;1544;48.834;9.194;2022-07-23T07:41:33;6.93;;;6.33;;
3066;SDS011;1544;48.834;9.194;2022-07-23T07:44:04;6.80;;;6.40;;
3066;SDS011;1544;48.834;9.194;2022-07-23T07:46:35;9.07;;;7.10;;
3066;SDS011;1544;48.834;9.194;2022-07-23T07:49:06;7.37;;;6.77;;
3066;SDS011;1544;48.834;9.194;2022-07-23T07:51:45;8.23;;;7.53;;
3066;SDS011;1544;48.834;9.194;2022-07-23T07:54:17;7.20;;;6.70;;
3066;SDS011;1544;48.834;9.194;2022-07-23T07:56:50;6.80;;;6.23;;
3066;SDS011;1544;48.834;9.194;2022-07-23T07:59:21;7.13;;;6.73;;
3066;SDS011;1544;48.834;9.194;2022-07-23T08:01:54;6.50;;;6.00;;
3066;SDS011;1544;48.834;9.194;2022-07-23T08:04:25;7.30;;;6.80;;
3066;SDS011;1544;48.834;9.194;2022-07-23T08:06:56;7.10;;;6.70;;
3066;SDS011;1544;48.834;9.194;2022-07-23T08:09:27;7.27;;;6.73;;
3066;SDS011;1544;48.834;9.194;2022-07-23T08:11:58;7.70;;;7.13;;
3066;SDS011;1544;48.834;9.194;2022-07-23T08:14:30;6.77;;;6.23;;
3066;SDS011;1544;48.834;9.194;2022-07-23T08:17:01;6.97;;;6.53;;
3066;SDS011;1544;48.834;9.194;2022-07-23T08:19:44;6.40;;;6.00;;
3066;SDS011;1544;48.834;9.194;2022-07-23T08:22:15;6.33;;;5.83;;
3066;SDS011;1544;48.834;9.194;2022-07-23T08:24:46;6.10;;;5.60;;
3066;SDS011;1544;48.834;9.194;2022-07-23T08:27:17;6.17;;;5.67;;
3066;SDS011;1544;48.834;9.194;2022-07-23T08:29:48;7.10;;;6.60;;
3066;SDS011;1544;48.834;9.194;2022-07-23T08:32:19;5.90;;;5.60;;
3066;SDS011;1544;48.834;9.194;2022-07-23T08:35:10;5.83;;;5.53;;
3066;SDS011;1544;48.834;9.194;2022-07-23T08:37:42;5.53;;;5.13;;
3066;SDS011;1544;48.834;9.194;2022-07-23T08:40:13;5.97;;;5.67;;
3066;SDS011;1544;48.834;9.194;2022-07-23T08:42:45;6.27;;;5.77;;
3066;SDS011;1544;48.834;9.194;2022-07-23T08:45:21;6.30;;;6.00;;
3066;SDS011;1544;48.834;9.194;2022-07-23T08:47:55;5.67;;;5.20;;
3066;SDS011;1544;48.834;9.194;2022-07-23T08:50:35;5.80;;;5.30;;
3066;SDS011;1544;48.834;9.194;2022-07-23T08:53:08;6.23;;;5.73;;
3066;SDS011;1544;48.834;9.194;2022-07-23T08:55:40;5.67;;;5.27;;
3066;SDS011;1544;48.834;9.194;2022-07-23T08:58:16;5.70;;;5.47;;
3066;SDS011;1544;48.834;9.194;2022-07-23T09:00:48;4.37;;;4.20;;
3066;SDS011;1544;48.834;9.194;2022-07-23T09:03:20;4.97;;;4.67;;
3066;SDS011;1544;48.834;9.194;2022-07-23T09:05:54;5.73;;;5.33;;
3066;SDS011;1544;48.834;9.194;2022-07-23T09:08:34;5.70;;;5.30;;
3066;SDS011;1544;48.834;9.194;2022-07-23T09:11:15;5.90;;;5.60;;
3066;SDS011;1544;48.834;9.194;2022-07-23T09:13:48;4.50;;;4.30;;
3066;SDS011;1544;48.834;9.194;2022-07-23T09:16:27;4.70;;;4.50;;
3066;SDS011;1544;48.834;9.194;2022-07-23T09:19:02;5.07;;;4.87;;
3066;SDS011;1544;48.834;9.194;2022-07-23T09:21:39;5.07;;;4.87;;
3066;SDS011;1544;48.834;9.194;2022-07-23T09:24:11;5.43;;;5.17;;
3066;SDS011;1544;48.834;9.194;2022-07-23T09:26:46;5.30;;;5.00;;
3066;SDS011;1544;48.834;9.194;2022-07-23T09:29:20;5.20;;;5.00;;
3066;SDS011;1544;48.834;9.194;2022-07-23T09:34:30;4.87;;;4.53;;
3066;SDS011;1544;48.834;9.194;2022-07-23T09:39:43;4.07;;;3.97;;
3066;SDS011;1544;48.834;9.194;2022-07-23T09:44:47;4.73;;;4.53;;
3066;SDS011;1544;48.834;9.194;2022-07-23T09:47:22;5.03;;;4.80;;
3066;SDS011;1544;48.834;9.194;2022-07-23T09:52:42;5.80;;;5.40;;
3066;SDS011;1544;48.834;9.194;2022-07-23T09:55:18;5.60;;;5.20;;
3066;SDS011;1544;48.834;9.194;2022-07-23T09:57:49;5.20;;;5.00;;
3066;SDS011;1544;48.834;9.194;2022-07-23T10:00:23;5.17;;;4.97;;
3066;SDS011;1544;48.834;9.194;2022-07-23T10:02:55;6.27;;;5.60;;
3066;SDS011;1544;48.834;9.194;2022-07-23T10:05:31;5.40;;;5.10;;
3066;SDS011;1544;48.834;9.194;2022-07-23T10:08:29;5.30;;;4.90;;
3066;SDS011;1544;48.834;9.194;2022-07-23T10:11:21;4.97;;;4.67;;
3066;SDS011;1544;48.834;9.194;2022-07-23T10:14:04;4.87;;;4.57;;
3066;SDS011;1544;48.834;9.194;2022-07-23T10:16:56;4.13;;;3.93;;
3066;SDS011;1544;48.834;9.194;2022-07-23T10:19:27;4.40;;;4.20;;
3066;SDS011;1544;48.834;9.194;2022-07-23T10:22:18;4.93;;;4.73;;
3066;SDS011;1544;48.834;9.194;2022-07-23T10:34:17;5.47;;;5.17;;
3066;SDS011;1544;48.834;9.194;2022-07-23T10:37:17;5.87;;;5.40;;
3066;SDS011;1544;48.834;9.194;2022-07-23T10:42:48;5.80;;;5.43;;
3066;SDS011;1544;48.834;9.194;2022-07-23T10:45:32;5.60;;;5.30;;
3066;SDS011;1544;48.834;9.194;2022-07-23T10:48:22;5.20;;;4.90;;
3066;SDS011;1544;48.834;9.194;2022-07-23T10:51:18;5.40;;;5.13;;
3066;SDS011;1544;48.834;9.194;2022-07-23T10:59:27;6.27;;;5.77;;
3066;SDS011;1544;48.834;9.194;2022-07-23T11:04:54;6.63;;;6.17;;
3066;SDS011;1544;48.834;9.194;2022-07-23T11:07:31;5.97;;;5.60;;
3066;SDS011;1544;48.834;9.194;2022-07-23T11:10:04;6.43;;;6.03;;
3066;SDS011;1544;48.834;9.194;2022-07-23T11:12:35;6.43;;;4.90;;
3066;SDS011;1544;48.834;9.194;2022-07-23T11:20:21;5.50;;;5.30;;
3066;SDS011;1544;48.834;9.194;2022-07-23T11:22:57;4.87;;;4.57;;
3066;SDS011;1544;48.834;9.194;2022-07-23T11:25:31;5.50;;;5.20;;
3066;SDS011;1544;48.834;9.194;2022-07-23T11:28:12;5.03;;;4.67;;
3066;SDS011;1544;48.834;9.194;2022-07-23T11:30:51;5.70;;;5.40;;
3066;SDS011;1544;48.834;9.194;2022-07-23T11:33:23;6.10;;;5.27;;
3066;SDS011;1544;48.834;9.194;2022-07-23T11:36:02;5.10;;;4.77;;
3066;SDS011;1544;48.834;9.194;2022-07-23T11:38:35;5.03;;;4.73;;
3066;SDS011;1544;48.834;9.194;2022-07-23T11:41:08;5.20;;;4.80;;
3066;SDS011;1544;48.834;9.194;2022-07-23T11:43:40;5.37;;;5.07;;
3066;SDS011;1544;48.834;9.194;2022-07-23T11:46:12;5.07;;;4.87;;
3066;SDS011;1544;48.834;9.194;2022-07-23T11:48:43;5.10;;;4.90;;
3066;SDS011;1544;48.834;9.194;2022-07-23T11:51:24;5.60;;;5.20;;
3066;SDS011;1544;48.834;9.194;2022-07-23T11:54:04;5.33;;;5.00;;
3066;SDS011;1544;48.834;9.194;2022-07-23T11:56:36;5.47;;;5.17;;
3066;SDS011;1544;48.834;9.194;2022-07-23T11:59:07;5.90;;;5.60;;
3066;SDS011;1544;48.834;9.194;2022-07-23T12:01:55;6.30;;;6.00;;
3066;SDS011;1544;48.834;9.194;2022-07-23T12:04:42;6.03;;;5.73;;
3066;SDS011;1544;48.834;9.194;2022-07-23T12:07:49;5.73;;;5.33;;
3066;SDS011;1544;48.834;9.194;2022-07-23T12:10:16;6.00;;;5.73;;
3066;SDS011;1544;48.834;9.194;2022-07-23T12:12:52;5.37;;;5.17;;
3066;SDS011;1544;48.834;9.194;2022-07-23T12:15:35;6.17;;;5.87;;
3066;SDS011;1544;48.834;9.194;2022-07-23T12:18:14;5.20;;;4.90;;
3066;SDS011;1544;48.834;9.194;2022-07-23T12:20:54;6.10;;;5.73;;
3066;SDS011;1544;48.834;9.194;2022-07-23T12:23:27;5.60;;;5.30;;
3066;SDS011;1544;48.834;9.194;2022-07-23T12:26:00;6.17;;;5.80;;
3066;SDS011;1544;48.834;9.194;2022-07-23T12:28:33;5.47;;;5.07;;
3066;SDS011;1544;48.834;9.194;2022-07-23T12:31:07;5.83;;;5.50;;
3066;SDS011;1544;48.834;9.194;2022-07-23T12:33:42;6.33;;;6.03;;
3066;SDS011;1544;48.834;9.194;2022-07-23T12:36:13;5.93;;;5.63;;
3066;SDS011;1544;48.834;9.194;2022-07-23T12:38:49;5.67;;;5.37;;
3066;SDS011;1544;48.834;9.194;2022-07-23T12:41:20;5.87;;;5.57;;
3066;SDS011;1544;48.834;9.194;2022-07-23T12:43:51;5.57;;;5.37;;
3066;SDS011;1544;48.834;9.194;2022-07-23T12:46:23;5.73;;;5.43;;
3066;SDS011;1544;48.834;9.194;2022-07-23T12:48:55;5.73;;;5.50;;
3066;SDS011;1544;48.834;9.194;2022-07-23T12:51:28;6.27;;;5.87;;
3066;SDS011;1544;48.834;9.194;2022-07-23T12:54:07;5.93;;;5.63;;
3066;SDS011;1544;48.834;9.194;2022-07-23T12:56:40;6.10;;;5.80;;
3066;SDS011;1544;48.834;9.194;2022-07-23T12:59:18;6.20;;;5.80;;
3066;SDS011;1544;48.834;9.194;2022-07-23T13:01:54;6.13;;;5.83;;
3066;SDS011;1544;48.834;9.194;2022-07-23T13:04:28;6.00;;;5.70;;
3066;SDS011;1544;48.834;9.194;2022-07-23T13:07:01;6.70;;;6.30;;
3066;SDS011;1544;48.834;9.194;2022-07-23T13:09:34;5.47;;;5.27;;
3066;SDS011;1544;48.834;9.194;2022-07-23T13:12:11;6.27;;;5.97;;
3066;SDS011;1544;48.834;9.194;2022-07-23T13:14:42;6.03;;;5.73;;
3066;SDS011;1544;48.834;9.194;2022-07-23T13:17:15;6.30;;;6.00;;
3066;SDS011;1544;48.834;9.194;2022-07-23T13:19:49;5.80;;;5.57;;
3066;SDS011;1544;48.834;9.194;2022-07-23T13:22:21;6.87;;;6.37;;
3066;SDS011;1544;48.834;9.194;2022-07-23T13:24:52;6.80;;;6.40;;
3066;SDS011;1544;48.834;9.194;2022-07-23T13:27:23;7.43;;;7.00;;
3066;SDS011;1544;48.834;9.194;2022-07-23T13:29:54;7.13;;;6.73;;
3066;SDS011;1544;48.834;9.194;2022-07-23T13:32:25;6.30;;;6.00;;
3066;SDS011;1544;48.834;9.194;2022-07-23T13:34:56;6.13;;;5.63;;
3066;SDS011;1544;48.834;9.194;2022-07-23T13:37:27;6.77;;;6.47;;
3066;SDS011;1544;48.834;9.194;2022-07-23T13:39:58;6.27;;;5.80;;
3066;SDS011;1544;48.834;9.194;2022-07-23T13:42:29;7.43;;;7.00;;
3066;SDS011;1544;48.834;9.194;2022-07-23T13:45:01;7.17;;;6.77;;
3066;SDS011;1544;48.834;9.194;2022-07-23T13:47:33;7.30;;;6.80;;
3066;SDS011;1544;48.834;9.194;2022-07-23T13:50:04;7.20;;;6.77;;
3066;SDS011;1544;48.834;9.194;2022-07-23T13:52:36;7.90;;;7.50;;
3066;SDS011;1544;48.834;9.194;2022-07-23T13:55:08;7.10;;;6.70;;
3066;SDS011;1544;48.834;9.194;2022-07-23T13:57:39;8.30;;;7.73;;
3066;SDS011;1544;48.834;9.194;2022-07-23T14:00:11;6.73;;;6.43;;
3066;SDS011;1544;48.834;9.194;2022-07-23T14:03:03;6.63;;;6.33;;
3066;SDS011;1544;48.834;9.194;2022-07-23T14:05:35;6.33;;;6.03;;
3066;SDS011;1544;48.834;9.194;2022-07-23T14:08:07;6.63;;;6.23;;
3066;SDS011;1544;48.834;9.194;2022-07-23T14:10:39;6.90;;;6.60;;
3066;SDS011;1544;48.834;9.194;2022-07-23T14:13:10;7.00;;;6.70;;
3066;SDS011;1544;48.834;9.194;2022-07-23T14:15:42;7.27;;;6.77;;
3066;SDS011;1544;48.834;9.194;2022-07-23T14:18:13;6.97;;;6.60;;
3066;SDS011;1544;48.834;9.194;2022-07-23T14:20:44;6.10;;;5.83;;
3066;SDS011;1544;48.834;9.194;2022-07-23T14:23:15;6.30;;;6.00;;
3066;SDS011;1544;48.834;9.194;2022-07-23T14:25:46;7.13;;;6.77;;
3066;SDS011;1544;48.834;9.194;2022-07-23T14:28:18;6.63;;;6.23;;
3066;SDS011;1544;48.834;9.194;2022-07-23T14:30:51;7.40;;;7.00;;
3066;SDS011;1544;48.834;9.194;2022-07-23T14:33:22;7.17;;;6.60;;
3066;SDS011;1544;48.834;9.194;2022-07-23T14:35:55;6.80;;;6.43;;
3066;SDS011;1544;48.834;9.194;2022-07-23T14:38:28;7.13;;;6.73;;
3066;SDS011;1544;48.834;9.194;2022-07-23T14:41:00;6.83;;;6.43;;
3066;SDS011;1544;48.834;9.194;2022-07-23T14:43:32;6.53;;;6.23;;
3066;SDS011;1544;48.834;9.194;2022-07-23T14:46:08;6.70;;;6.40;;
3066;SDS011;1544;48.834;9.194;2022-07-23T14:48:39;6.70;;;6.30;;
3066;SDS011;1544;48.834;9.194;2022-07-23T14:51:10;6.70;;;6.30;;
3066;SDS011;1544;48.834;9.194;2022-07-23T14:53:41;6.10;;;5.90;;
3066;SDS011;1544;48.834;9.194;2022-07-23T14:56:13;7.00;;;6.70;;
3066;SDS011;1544;48.834;9.194;2022-07-23T14:58:44;6.10;;;5.90;;
3066;SDS011;1544;48.834;9.194;2022-07-23T15:01:15;7.47;;;7.07;;
3066;SDS011;1544;48.834;9.194;2022-07-23T15:03:47;6.97;;;6.67;;
3066;SDS011;1544;48.834;9.194;2022-07-23T15:06:18;7.60;;;7.20;;
3066;SDS011;1544;48.834;9.194;2022-07-23T15:08:50;6.80;;;6.50;;
3066;SDS011;1544;48.834;9.194;2022-07-23T15:11:21;6.37;;;6.07;;
3066;SDS011;1544;48.834;9.194;2022-07-23T15:13:54;6.70;;;6.23;;
3066;SDS011;1544;48.834;9.194;2022-07-23T15:16:27;6.83;;;6.43;;
3066;SDS011;1544;48.834;9.194;2022-07-23T15:18:58;6.70;;;6.30;;
3066;SDS011;1544;48.834;9.194;2022-07-23T15:21:30;6.20;;;5.70;;
3066;SDS011;1544;48.834;9.194;2022-07-23T15:24:02;6.60;;;6.30;;
3066;SDS011;1544;48.834;9.194;2022-07-23T15:26:33;6.47;;;6.17;;
3066;SDS011;1544;48.834;9.194;2022-07-23T15:29:05;7.73;;;7.07;;
3066;SDS011;1544;48.834;9.194;2022-07-23T15:31:36;6.73;;;6.23;;
3066;SDS011;1544;48.834;9.194;2022-07-23T15:34:07;6.67;;;6.37;;
3066;SDS011;1544;48.834;9.194;2022-07-23T15:36:39;5.63;;;5.33;;
3066;SDS011;1544;48.834;9.194;2022-07-23T15:39:11;6.47;;;6.17;;
3066;SDS011;1544;48.834;9.194;2022-07-23T15:41:42;6.23;;;5.83;;
3066;SDS011;1544;48.834;9.194;2022-07-23T15:44:13;7.13;;;6.83;;
3066;SDS011;1544;48.834;9.194;2022-07-23T15:46:58;6.93;;;6.53;;
3066;SDS011;1544;48.834;9.194;2022-07-23T15:49:29;6.33;;;6.00;;
3066;SDS011;1544;48.834;9.194;2022-07-23T15:52:00;6.07;;;5.70;;
3066;SDS011;1544;48.834;9.194;2022-07-23T15:54:32;6.53;;;6.27;;
3066;SDS011;1544;48.834;9.194;2022-07-23T15:57:04;6.37;;;5.93;;
3066;SDS011;1544;48.834;9.194;2022-07-23T15:59:36;6.83;;;6.43;;
3066;SDS011;1544;48.834;9.194;2022-07-23T16:02:07;6.63;;;6.33;;
3066;SDS011;1544;48.834;9.194;2022-07-23T16:04:39;5.90;;;5.70;;
3066;SDS011;1544;48.834;9.194;2022-07-23T16:07:10;5.47;;;5.17;;
3066;SDS011;1544;48.834;9.194;2022-07-23T16:09:45;6.10;;;5.73;;
3066;SDS011;1544;48.834;9.194;2022-07-23T16:12:16;5.97;;;5.77;;
3066;SDS011;1544;48.834;9.194;2022-07-23T16:14:47;6.17;;;5.77;;
3066;SDS011;1544;48.834;9.194;2022-07-23T16:17:18;5.53;;;5.30;;
3066;SDS011;1544;48.834;9.194;2022-07-23T16:19:50;6.20;;;5.97;;
3066;SDS011;1544;48.834;9.194;2022-07-23T16:22:21;5.80;;;5.60;;
3066;SDS011;1544;48.834;9.194;2022-07-23T16:24:52;5.83;;;5.47;;
3066;SDS011;1544;48.834;9.194;2022-07-23T16:27:23;6.10;;;5.80;;